sensor_id;sensor_type;location;lat;lon;timestamp;P1;durP1;ratioP1;P2;durP2;ratioP2
14698;SDS011;7439;50.804;4.602;2023-06-22T00:01:52;7.13;;;6.10;;
14698;SDS011;7439;50.804;4.602;2023-06-22T00:04:24;6.63;;;5.20;;
14698;SDS011;7439;50.804;4.602;2023-06-22T00:06:52;6.80;;;4.30;;
14698;SDS011;7439;50.804;4.602;2023-06-22T00:09:19;7.50;;;4.47;;
14698;SDS011;7439;50.804;4.602;2023-06-22T00:11:54;5.03;;;4.63;;
14698;SDS011;7439;50.804;4.602;2023-06-22T00:14:23;5.67;;;4.87;;
14698;SDS011;7439;50.804;4.602;2023-06-22T00:16:53;5.07;;;4.67;;
14698;SDS011;7439;50.804;4.602;2023-06-22T00:19:24;6.47;;;5.03;;
14698;SDS011;7439;50.804;4.602;2023-06-22T00:21:51;6.60;;;4.47;;
14698;SDS011;7439;50.804;4.602;2023-06-22T00:24:19;5.70;;;4.47;;
14698;SDS011;7439;50.804;4.602;2023-06-22T00:26:48;5.20;;;4.80;;
14698;SDS011;7439;50.804;4.602;2023-06-22T00:29:15;6.40;;;4.80;;
14698;SDS011;7439;50.804;4.602;2023-06-22T00:31:43;5.57;;;4.90;;
14698;SDS011;7439;50.804;4.602;2023-06-22T00:34:11;8.97;;;5.03;;
14698;SDS011;7439;50.804;4.602;2023-06-22T00:36:38;5.60;;;5.10;;
14698;SDS011;7439;50.804;4.602;2023-06-22T00:39:06;5.10;;;4.60;;
14698;SDS011;7439;50.804;4.602;2023-06-22T00:41:33;5.13;;;4.63;;
14698;SDS011;7439;50.804;4.602;2023-06-22T00:44:02;4.90;;;4.43;;
14698;SDS011;7439;50.804;4.602;2023-06-22T00:46:30;5.97;;;4.80;;
14698;SDS011;7439;50.804;4.602;2023-06-22T00:48:57;5.97;;;4.50;;
14698;SDS011;7439;50.804;4.602;2023-06-22T00:51:25;6.03;;;5.20;;
14698;SDS011;7439;50.804;4.602;2023-06-22T00:53:52;6.00;;;4.90;;
14698;SDS011;7439;50.804;4.602;2023-06-22T00:56:19;5.63;;;5.03;;
14698;SDS011;7439;50.804;4.602;2023-06-22T00:58:50;5.20;;;4.73;;
14698;SDS011;7439;50.804;4.602;2023-06-22T01:01:20;5.53;;;4.73;;
14698;SDS011;7439;50.804;4.602;2023-06-22T01:03:48;6.13;;;5.63;;
14698;SDS011;7439;50.804;4.602;2023-06-22T01:06:16;6.03;;;4.70;;
14698;SDS011;7439;50.804;4.602;2023-06-22T01:08:46;6.77;;;4.87;;
14698;SDS011;7439;50.804;4.602;2023-06-22T01:11:16;7.13;;;4.80;;
14698;SDS011;7439;50.804;4.602;2023-06-22T01:13:45;5.03;;;4.40;;
14698;SDS011;7439;50.804;4.602;2023-06-22T01:16:14;6.33;;;4.87;;
14698;SDS011;7439;50.804;4.602;2023-06-22T01:18:44;6.80;;;4.90;;
14698;SDS011;7439;50.804;4.602;2023-06-22T01:21:14;6.10;;;4.80;;
14698;SDS011;7439;50.804;4.602;2023-06-22T01:23:50;5.93;;;4.73;;
14698;SDS011;7439;50.804;4.602;2023-06-22T01:26:21;4.93;;;4.47;;
14698;SDS011;7439;50.804;4.602;2023-06-22T01:28:53;6.53;;;4.70;;
14698;SDS011;7439;50.804;4.602;2023-06-22T01:31:22;5.07;;;4.53;;
14698;SDS011;7439;50.804;4.602;2023-06-22T01:33:50;7.63;;;4.87;;
14698;SDS011;7439;50.804;4.602;2023-06-22T01:36:18;5.67;;;5.17;;
14698;SDS011;7439;50.804;4.602;2023-06-22T01:38:46;5.10;;;4.60;;
14698;SDS011;7439;50.804;4.602;2023-06-22T01:41:14;5.23;;;4.73;;
14698;SDS011;7439;50.804;4.602;2023-06-22T01:43:41;5.13;;;4.73;;
14698;SDS011;7439;50.804;4.602;2023-06-22T01:46:11;6.10;;;4.73;;
14698;SDS011;7439;50.804;4.602;2023-06-22T01:48:39;5.50;;;5.00;;
14698;SDS011;7439;50.804;4.602;2023-06-22T01:51:06;5.30;;;4.80;;
14698;SDS011;7439;50.804;4.602;2023-06-22T01:53:34;5.23;;;4.80;;
14698;SDS011;7439;50.804;4.602;2023-06-22T01:56:01;6.90;;;5.00;;
14698;SDS011;7439;50.804;4.602;2023-06-22T01:58:29;5.73;;;4.80;;
14698;SDS011;7439;50.804;4.602;2023-06-22T02:00:56;7.00;;;4.83;;
14698;SDS011;7439;50.804;4.602;2023-06-22T02:03:31;5.53;;;5.03;;
14698;SDS011;7439;50.804;4.602;2023-06-22T02:06:02;6.33;;;5.00;;
14698;SDS011;7439;50.804;4.602;2023-06-22T02:08:31;5.70;;;5.10;;
14698;SDS011;7439;50.804;4.602;2023-06-22T02:10:59;5.67;;;5.17;;
14698;SDS011;7439;50.804;4.602;2023-06-22T02:13:27;6.40;;;5.20;;
14698;SDS011;7439;50.804;4.602;2023-06-22T02:15:55;6.43;;;5.30;;
14698;SDS011;7439;50.804;4.602;2023-06-22T02:18:23;5.97;;;5.40;;
14698;SDS011;7439;50.804;4.602;2023-06-22T02:20:52;6.07;;;5.47;;
14698;SDS011;7439;50.804;4.602;2023-06-22T02:23:19;8.30;;;5.97;;
14698;SDS011;7439;50.804;4.602;2023-06-22T02:25:46;5.97;;;5.47;;
14698;SDS011;7439;50.804;4.602;2023-06-22T02:28:14;6.47;;;5.80;;
14698;SDS011;7439;50.804;4.602;2023-06-22T02:36:33;6.90;;;6.30;;
14698;SDS011;7439;50.804;4.602;2023-06-22T02:39:00;7.10;;;6.40;;
14698;SDS011;7439;50.804;4.602;2023-06-22T02:41:28;10.47;;;6.03;;
14698;SDS011;7439;50.804;4.602;2023-06-22T02:46:59;9.93;;;6.30;;
14698;SDS011;7439;50.804;4.602;2023-06-22T02:49:26;6.63;;;5.20;;
14698;SDS011;7439;50.804;4.602;2023-06-22T02:51:55;6.80;;;5.77;;
14698;SDS011;7439;50.804;4.602;2023-06-22T02:54:23;7.03;;;6.37;;
14698;SDS011;7439;50.804;4.602;2023-06-22T02:56:50;6.60;;;5.90;;
14698;SDS011;7439;50.804;4.602;2023-06-22T02:59:17;6.20;;;5.60;;
14698;SDS011;7439;50.804;4.602;2023-06-22T03:01:48;6.80;;;5.80;;
14698;SDS011;7439;50.804;4.602;2023-06-22T03:04:16;6.67;;;5.97;;
14698;SDS011;7439;50.804;4.602;2023-06-22T03:06:43;8.30;;;5.83;;
14698;SDS011;7439;50.804;4.602;2023-06-22T03:09:17;6.53;;;5.80;;
14698;SDS011;7439;50.804;4.602;2023-06-22T03:11:44;7.63;;;5.37;;
14698;SDS011;7439;50.804;4.602;2023-06-22T03:16:58;7.23;;;5.57;;
14698;SDS011;7439;50.804;4.602;2023-06-22T03:19:28;7.60;;;5.67;;
14698;SDS011;7439;50.804;4.602;2023-06-22T03:21:56;6.63;;;5.93;;
14698;SDS011;7439;50.804;4.602;2023-06-22T03:24:25;7.77;;;7.03;;
14698;SDS011;7439;50.804;4.602;2023-06-22T03:26:54;7.40;;;6.40;;
14698;SDS011;7439;50.804;4.602;2023-06-22T03:29:22;6.63;;;5.93;;
14698;SDS011;7439;50.804;4.602;2023-06-22T03:31:50;9.17;;;5.77;;
14698;SDS011;7439;50.804;4.602;2023-06-22T03:34:18;6.60;;;6.00;;
14698;SDS011;7439;50.804;4.602;2023-06-22T03:36:45;7.77;;;5.60;;
14698;SDS011;7439;50.804;4.602;2023-06-22T03:39:12;6.57;;;5.87;;
14698;SDS011;7439;50.804;4.602;2023-06-22T03:41:41;6.83;;;5.10;;
14698;SDS011;7439;50.804;4.602;2023-06-22T03:44:08;6.33;;;5.47;;
14698;SDS011;7439;50.804;4.602;2023-06-22T03:46:37;9.83;;;6.43;;
14698;SDS011;7439;50.804;4.602;2023-06-22T03:51:50;6.73;;;6.13;;
14698;SDS011;7439;50.804;4.602;2023-06-22T03:57:23;5.60;;;5.10;;
14698;SDS011;7439;50.804;4.602;2023-06-22T03:59:50;6.97;;;5.97;;
14698;SDS011;7439;50.804;4.602;2023-06-22T04:02:18;7.53;;;6.00;;
14698;SDS011;7439;50.804;4.602;2023-06-22T04:04:45;7.63;;;6.03;;
14698;SDS011;7439;50.804;4.602;2023-06-22T04:07:12;7.83;;;6.07;;
14698;SDS011;7439;50.804;4.602;2023-06-22T04:09:40;6.37;;;5.67;;
14698;SDS011;7439;50.804;4.602;2023-06-22T04:12:07;8.67;;;5.70;;
14698;SDS011;7439;50.804;4.602;2023-06-22T04:14:36;5.80;;;5.20;;
14698;SDS011;7439;50.804;4.602;2023-06-22T04:17:03;5.50;;;4.97;;
14698;SDS011;7439;50.804;4.602;2023-06-22T04:19:31;5.50;;;5.00;;
14698;SDS011;7439;50.804;4.602;2023-06-22T04:21:58;9.00;;;6.27;;
14698;SDS011;7439;50.804;4.602;2023-06-22T04:24:26;5.73;;;5.10;;
14698;SDS011;7439;50.804;4.602;2023-06-22T04:26:53;5.13;;;4.63;;
14698;SDS011;7439;50.804;4.602;2023-06-22T04:29:21;8.57;;;5.47;;
14698;SDS011;7439;50.804;4.602;2023-06-22T04:34:58;6.03;;;5.37;;
14698;SDS011;7439;50.804;4.602;2023-06-22T04:47:06;7.00;;;5.70;;
14698;SDS011;7439;50.804;4.602;2023-06-22T04:49:37;6.20;;;5.50;;
14698;SDS011;7439;50.804;4.602;2023-06-22T04:52:07;5.47;;;5.03;;
14698;SDS011;7439;50.804;4.602;2023-06-22T04:54:35;10.00;;;5.43;;
14698;SDS011;7439;50.804;4.602;2023-06-22T05:00:07;7.27;;;5.23;;
14698;SDS011;7439;50.804;4.602;2023-06-22T05:14:56;7.17;;;6.03;;
14698;SDS011;7439;50.804;4.602;2023-06-22T05:48:20;11.50;;;10.27;;
14698;SDS011;7439;50.804;4.602;2023-06-22T05:51:02;12.37;;;11.27;;
14698;SDS011;7439;50.804;4.602;2023-06-22T05:53:31;11.40;;;10.30;;
14698;SDS011;7439;50.804;4.602;2023-06-22T05:59:36;13.00;;;11.70;;
14698;SDS011;7439;50.804;4.602;2023-06-22T06:22:35;12.63;;;11.40;;
14698;SDS011;7439;50.804;4.602;2023-06-22T06:25:10;12.33;;;11.23;;
14698;SDS011;7439;50.804;4.602;2023-06-22T06:30:25;12.80;;;11.50;;
14698;SDS011;7439;50.804;4.602;2023-06-22T06:32:57;14.47;;;13.17;;
14698;SDS011;7439;50.804;4.602;2023-06-22T06:35:25;13.57;;;12.13;;
14698;SDS011;7439;50.804;4.602;2023-06-22T06:40:47;15.87;;;12.40;;
14698;SDS011;7439;50.804;4.602;2023-06-22T06:43:14;14.60;;;13.20;;
14698;SDS011;7439;50.804;4.602;2023-06-22T06:45:41;14.30;;;12.80;;
14698;SDS011;7439;50.804;4.602;2023-06-22T06:48:09;16.83;;;12.63;;
14698;SDS011;7439;50.804;4.602;2023-06-22T06:50:39;13.20;;;11.73;;
14698;SDS011;7439;50.804;4.602;2023-06-22T06:53:09;14.87;;;13.30;;
14698;SDS011;7439;50.804;4.602;2023-06-22T06:55:37;14.60;;;13.10;;
14698;SDS011;7439;50.804;4.602;2023-06-22T06:58:06;13.20;;;12.03;;
14698;SDS011;7439;50.804;4.602;2023-06-22T07:00:38;14.93;;;12.67;;
14698;SDS011;7439;50.804;4.602;2023-06-22T07:03:07;16.33;;;14.67;;
14698;SDS011;7439;50.804;4.602;2023-06-22T07:05:36;14.80;;;12.67;;
14698;SDS011;7439;50.804;4.602;2023-06-22T07:08:05;16.10;;;14.00;;
14698;SDS011;7439;50.804;4.602;2023-06-22T07:10:53;13.93;;;12.53;;
14698;SDS011;7439;50.804;4.602;2023-06-22T07:13:36;15.20;;;13.80;;
14698;SDS011;7439;50.804;4.602;2023-06-22T07:16:26;15.37;;;13.77;;
14698;SDS011;7439;50.804;4.602;2023-06-22T07:22:19;13.37;;;12.10;;
14698;SDS011;7439;50.804;4.602;2023-06-22T07:25:01;13.73;;;11.10;;
14698;SDS011;7439;50.804;4.602;2023-06-22T07:27:43;13.83;;;12.43;;
14698;SDS011;7439;50.804;4.602;2023-06-22T07:30:23;13.17;;;11.70;;
14698;SDS011;7439;50.804;4.602;2023-06-22T07:33:04;13.40;;;11.97;;
14698;SDS011;7439;50.804;4.602;2023-06-22T07:35:53;11.30;;;9.80;;
14698;SDS011;7439;50.804;4.602;2023-06-22T07:44:24;10.60;;;9.60;;
14698;SDS011;7439;50.804;4.602;2023-06-22T07:52:51;9.07;;;8.17;;
14698;SDS011;7439;50.804;4.602;2023-06-22T07:55:53;8.03;;;7.33;;
14698;SDS011;7439;50.804;4.602;2023-06-22T07:58:25;9.87;;;8.87;;
14698;SDS011;7439;50.804;4.602;2023-06-22T08:01:05;10.30;;;7.97;;
14698;SDS011;7439;50.804;4.602;2023-06-22T08:03:36;9.77;;;8.03;;
14698;SDS011;7439;50.804;4.602;2023-06-22T08:06:18;8.37;;;7.50;;
14698;SDS011;7439;50.804;4.602;2023-06-22T08:09:29;9.83;;;8.70;;
14698;SDS011;7439;50.804;4.602;2023-06-22T08:11:57;7.80;;;7.10;;
14698;SDS011;7439;50.804;4.602;2023-06-22T08:14:26;11.20;;;7.87;;
14698;SDS011;7439;50.804;4.602;2023-06-22T08:16:55;7.50;;;6.80;;
14698;SDS011;7439;50.804;4.602;2023-06-22T08:19:56;8.83;;;7.77;;
14698;SDS011;7439;50.804;4.602;2023-06-22T08:22:24;7.73;;;6.77;;
14698;SDS011;7439;50.804;4.602;2023-06-22T08:24:54;8.43;;;7.57;;
14698;SDS011;7439;50.804;4.602;2023-06-22T08:27:33;8.63;;;7.80;;
14698;SDS011;7439;50.804;4.602;2023-06-22T08:30:02;7.70;;;6.90;;
14698;SDS011;7439;50.804;4.602;2023-06-22T08:32:43;9.83;;;7.80;;
14698;SDS011;7439;50.804;4.602;2023-06-22T08:35:12;9.47;;;7.93;;
14698;SDS011;7439;50.804;4.602;2023-06-22T08:37:49;9.00;;;8.20;;
14698;SDS011;7439;50.804;4.602;2023-06-22T08:40:24;8.67;;;7.77;;
14698;SDS011;7439;50.804;4.602;2023-06-22T08:42:59;10.13;;;8.63;;
14698;SDS011;7439;50.804;4.602;2023-06-22T08:45:32;9.27;;;8.37;;
14698;SDS011;7439;50.804;4.602;2023-06-22T08:54:10;7.83;;;7.23;;
14698;SDS011;7439;50.804;4.602;2023-06-22T09:00:31;12.50;;;8.00;;
14698;SDS011;7439;50.804;4.602;2023-06-22T09:03:05;9.23;;;8.33;;
14698;SDS011;7439;50.804;4.602;2023-06-22T09:05:47;9.40;;;8.50;;
14698;SDS011;7439;50.804;4.602;2023-06-22T09:08:39;8.77;;;8.00;;
14698;SDS011;7439;50.804;4.602;2023-06-22T09:11:13;9.57;;;8.40;;
14698;SDS011;7439;50.804;4.602;2023-06-22T09:13:46;10.50;;;9.40;;
14698;SDS011;7439;50.804;4.602;2023-06-22T09:19:49;9.27;;;8.37;;
14698;SDS011;7439;50.804;4.602;2023-06-22T09:22:17;10.53;;;9.30;;
14698;SDS011;7439;50.804;4.602;2023-06-22T09:24:49;9.53;;;8.63;;
14698;SDS011;7439;50.804;4.602;2023-06-22T09:27:26;9.20;;;8.27;;
14698;SDS011;7439;50.804;4.602;2023-06-22T09:29:54;9.17;;;8.33;;
14698;SDS011;7439;50.804;4.602;2023-06-22T09:32:26;9.50;;;8.60;;
14698;SDS011;7439;50.804;4.602;2023-06-22T09:37:44;8.90;;;8.10;;
14698;SDS011;7439;50.804;4.602;2023-06-22T09:40:30;10.33;;;9.43;;
14698;SDS011;7439;50.804;4.602;2023-06-22T09:43:04;10.30;;;9.30;;
14698;SDS011;7439;50.804;4.602;2023-06-22T09:45:33;12.47;;;10.33;;
14698;SDS011;7439;50.804;4.602;2023-06-22T09:48:00;10.60;;;9.60;;
14698;SDS011;7439;50.804;4.602;2023-06-22T09:50:29;13.20;;;11.90;;
14698;SDS011;7439;50.804;4.602;2023-06-22T09:53:04;12.50;;;11.30;;
14698;SDS011;7439;50.804;4.602;2023-06-22T09:55:34;14.53;;;13.17;;
14698;SDS011;7439;50.804;4.602;2023-06-22T09:58:08;14.93;;;12.97;;
14698;SDS011;7439;50.804;4.602;2023-06-22T10:00:37;13.33;;;12.07;;
14698;SDS011;7439;50.804;4.602;2023-06-22T10:03:06;16.60;;;14.30;;
14698;SDS011;7439;50.804;4.602;2023-06-22T10:05:34;16.47;;;14.80;;
14698;SDS011;7439;50.804;4.602;2023-06-22T11:20:36;29.87;;;26.73;;
14698;SDS011;7439;50.804;4.602;2023-06-22T11:28:56;27.73;;;25.07;;
14698;SDS011;7439;50.804;4.602;2023-06-22T11:31:25;28.97;;;26.13;;
14698;SDS011;7439;50.804;4.602;2023-06-22T11:49:15;33.17;;;30.03;;
14698;SDS011;7439;50.804;4.602;2023-06-22T11:51:43;33.03;;;30.00;;
14698;SDS011;7439;50.804;4.602;2023-06-22T11:54:10;36.73;;;32.90;;
14698;SDS011;7439;50.804;4.602;2023-06-22T11:56:38;35.87;;;32.27;;
14698;SDS011;7439;50.804;4.602;2023-06-22T11:59:05;38.37;;;34.87;;
14698;SDS011;7439;50.804;4.602;2023-06-22T12:01:32;39.77;;;35.77;;
14698;SDS011;7439;50.804;4.602;2023-06-22T12:06:49;41.10;;;37.07;;
14698;SDS011;7439;50.804;4.602;2023-06-22T12:15:45;43.40;;;39.27;;
14698;SDS011;7439;50.804;4.602;2023-06-22T12:21:32;45.20;;;40.77;;
14698;SDS011;7439;50.804;4.602;2023-06-22T12:24:01;45.80;;;41.30;;
14698;SDS011;7439;50.804;4.602;2023-06-22T12:26:31;46.23;;;41.63;;
14698;SDS011;7439;50.804;4.602;2023-06-22T12:32:02;44.50;;;40.07;;
14698;SDS011;7439;50.804;4.602;2023-06-22T12:35:12;47.23;;;42.43;;
14698;SDS011;7439;50.804;4.602;2023-06-22T12:37:40;43.53;;;39.23;;
14698;SDS011;7439;50.804;4.602;2023-06-22T12:40:12;44.77;;;39.97;;
14698;SDS011;7439;50.804;4.602;2023-06-22T12:42:39;46.57;;;41.73;;
14698;SDS011;7439;50.804;4.602;2023-06-22T12:45:08;44.67;;;40.33;;
14698;SDS011;7439;50.804;4.602;2023-06-22T12:47:35;45.00;;;40.53;;
14698;SDS011;7439;50.804;4.602;2023-06-22T12:50:03;46.23;;;41.53;;
14698;SDS011;7439;50.804;4.602;2023-06-22T12:52:30;43.20;;;39.10;;
14698;SDS011;7439;50.804;4.602;2023-06-22T12:54:58;45.50;;;41.00;;
14698;SDS011;7439;50.804;4.602;2023-06-22T12:57:27;45.20;;;40.53;;
14698;SDS011;7439;50.804;4.602;2023-06-22T12:59:54;45.97;;;41.37;;
14698;SDS011;7439;50.804;4.602;2023-06-22T13:02:23;44.60;;;40.17;;
14698;SDS011;7439;50.804;4.602;2023-06-22T13:04:51;46.50;;;41.90;;
14698;SDS011;7439;50.804;4.602;2023-06-22T13:10:12;44.97;;;40.43;;
14698;SDS011;7439;50.804;4.602;2023-06-22T13:12:41;47.00;;;42.40;;
14698;SDS011;7439;50.804;4.602;2023-06-22T13:15:08;46.10;;;41.53;;
14698;SDS011;7439;50.804;4.602;2023-06-22T13:17:36;46.63;;;41.60;;
14698;SDS011;7439;50.804;4.602;2023-06-22T13:20:04;46.27;;;41.27;;
14698;SDS011;7439;50.804;4.602;2023-06-22T13:22:32;45.60;;;40.90;;
14698;SDS011;7439;50.804;4.602;2023-06-22T13:25:05;48.00;;;43.27;;
14698;SDS011;7439;50.804;4.602;2023-06-22T13:27:33;46.03;;;41.13;;
14698;SDS011;7439;50.804;4.602;2023-06-22T13:30:01;49.63;;;44.43;;
14698;SDS011;7439;50.804;4.602;2023-06-22T13:32:29;47.10;;;42.50;;
14698;SDS011;7439;50.804;4.602;2023-06-22T13:34:57;50.93;;;45.40;;
14698;SDS011;7439;50.804;4.602;2023-06-22T13:37:25;49.27;;;44.20;;
14698;SDS011;7439;50.804;4.602;2023-06-22T13:39:52;50.47;;;45.40;;
14698;SDS011;7439;50.804;4.602;2023-06-22T13:42:21;50.20;;;45.17;;
14698;SDS011;7439;50.804;4.602;2023-06-22T13:44:48;48.63;;;43.80;;
14698;SDS011;7439;50.804;4.602;2023-06-22T13:47:17;50.77;;;45.47;;
14698;SDS011;7439;50.804;4.602;2023-06-22T13:49:45;50.97;;;45.67;;
14698;SDS011;7439;50.804;4.602;2023-06-22T13:52:12;52.90;;;47.50;;
14698;SDS011;7439;50.804;4.602;2023-06-22T13:54:39;52.23;;;47.13;;
14698;SDS011;7439;50.804;4.602;2023-06-22T13:57:07;53.43;;;47.90;;
14698;SDS011;7439;50.804;4.602;2023-06-22T14:02:22;51.77;;;46.57;;
14698;SDS011;7439;50.804;4.602;2023-06-22T14:07:53;50.37;;;45.17;;
14698;SDS011;7439;50.804;4.602;2023-06-22T14:10:20;51.50;;;46.20;;
14698;SDS011;7439;50.804;4.602;2023-06-22T14:12:48;50.50;;;45.30;;
14698;SDS011;7439;50.804;4.602;2023-06-22T14:15:18;50.30;;;45.20;;
14698;SDS011;7439;50.804;4.602;2023-06-22T14:17:47;49.00;;;44.13;;
14698;SDS011;7439;50.804;4.602;2023-06-22T14:20:14;50.40;;;45.60;;
14698;SDS011;7439;50.804;4.602;2023-06-22T14:22:42;50.87;;;45.73;;
14698;SDS011;7439;50.804;4.602;2023-06-22T14:25:09;50.83;;;45.30;;
14698;SDS011;7439;50.804;4.602;2023-06-22T14:27:37;50.77;;;45.77;;
14698;SDS011;7439;50.804;4.602;2023-06-22T14:30:04;48.90;;;43.90;;
14698;SDS011;7439;50.804;4.602;2023-06-22T14:32:32;50.90;;;45.80;;
14698;SDS011;7439;50.804;4.602;2023-06-22T14:35:04;49.93;;;44.90;;
14698;SDS011;7439;50.804;4.602;2023-06-22T14:43:17;49.47;;;44.50;;
14698;SDS011;7439;50.804;4.602;2023-06-22T14:45:44;50.23;;;45.33;;
14698;SDS011;7439;50.804;4.602;2023-06-22T14:48:11;47.93;;;43.10;;
14698;SDS011;7439;50.804;4.602;2023-06-22T14:50:40;49.93;;;44.87;;
14698;SDS011;7439;50.804;4.602;2023-06-22T15:11:49;51.30;;;45.87;;
14698;SDS011;7439;50.804;4.602;2023-06-22T15:17:38;48.27;;;43.57;;
14698;SDS011;7439;50.804;4.602;2023-06-22T15:20:05;50.30;;;45.50;;
14698;SDS011;7439;50.804;4.602;2023-06-22T15:22:33;52.53;;;47.17;;
14698;SDS011;7439;50.804;4.602;2023-06-22T15:25:00;51.47;;;46.47;;
14698;SDS011;7439;50.804;4.602;2023-06-22T15:30:15;52.27;;;47.33;;
14698;SDS011;7439;50.804;4.602;2023-06-22T15:32:43;54.03;;;48.63;;
14698;SDS011;7439;50.804;4.602;2023-06-22T15:35:11;55.23;;;49.67;;
14698;SDS011;7439;50.804;4.602;2023-06-22T15:37:39;57.33;;;51.50;;
14698;SDS011;7439;50.804;4.602;2023-06-22T15:40:07;53.90;;;48.40;;
14698;SDS011;7439;50.804;4.602;2023-06-22T15:42:34;52.27;;;47.13;;
14698;SDS011;7439;50.804;4.602;2023-06-22T15:45:02;52.07;;;47.03;;
14698;SDS011;7439;50.804;4.602;2023-06-22T15:47:31;51.93;;;47.03;;
14698;SDS011;7439;50.804;4.602;2023-06-22T15:49:58;51.60;;;46.73;;
14698;SDS011;7439;50.804;4.602;2023-06-22T15:52:25;50.37;;;45.73;;
14698;SDS011;7439;50.804;4.602;2023-06-22T15:54:53;50.87;;;46.10;;
14698;SDS011;7439;50.804;4.602;2023-06-22T15:57:22;51.37;;;46.47;;
14698;SDS011;7439;50.804;4.602;2023-06-22T15:59:51;51.67;;;47.03;;
14698;SDS011;7439;50.804;4.602;2023-06-22T16:02:18;51.77;;;46.80;;
14698;SDS011;7439;50.804;4.602;2023-06-22T16:04:47;52.30;;;47.27;;
14698;SDS011;7439;50.804;4.602;2023-06-22T16:07:15;52.00;;;47.10;;
14698;SDS011;7439;50.804;4.602;2023-06-22T16:09:43;52.53;;;47.63;;
14698;SDS011;7439;50.804;4.602;2023-06-22T16:14:56;50.00;;;45.20;;
14698;SDS011;7439;50.804;4.602;2023-06-22T16:17:23;49.60;;;44.90;;
14698;SDS011;7439;50.804;4.602;2023-06-22T16:19:53;50.33;;;45.47;;
14698;SDS011;7439;50.804;4.602;2023-06-22T16:22:22;48.57;;;43.97;;
14698;SDS011;7439;50.804;4.602;2023-06-22T16:24:50;49.83;;;45.00;;
14698;SDS011;7439;50.804;4.602;2023-06-22T16:27:18;48.90;;;44.13;;
14698;SDS011;7439;50.804;4.602;2023-06-22T16:29:45;47.97;;;43.53;;
14698;SDS011;7439;50.804;4.602;2023-06-22T16:32:13;46.00;;;41.53;;
14698;SDS011;7439;50.804;4.602;2023-06-22T16:37:45;49.47;;;44.73;;
14698;SDS011;7439;50.804;4.602;2023-06-22T16:40:13;47.77;;;43.20;;
14698;SDS011;7439;50.804;4.602;2023-06-22T16:42:45;46.57;;;42.27;;
14698;SDS011;7439;50.804;4.602;2023-06-22T16:45:13;46.43;;;42.00;;
14698;SDS011;7439;50.804;4.602;2023-06-22T16:47:40;46.27;;;41.77;;
14698;SDS011;7439;50.804;4.602;2023-06-22T16:50:08;45.13;;;40.97;;
14698;SDS011;7439;50.804;4.602;2023-06-22T17:01:13;54.47;;;49.07;;
14698;SDS011;7439;50.804;4.602;2023-06-22T17:09:14;56.90;;;51.23;;
14698;SDS011;7439;50.804;4.602;2023-06-22T17:11:43;63.53;;;57.07;;
14698;SDS011;7439;50.804;4.602;2023-06-22T17:14:13;62.03;;;55.83;;
14698;SDS011;7439;50.804;4.602;2023-06-22T17:19:32;64.37;;;58.07;;
14698;SDS011;7439;50.804;4.602;2023-06-22T17:22:05;66.13;;;59.73;;
14698;SDS011;7439;50.804;4.602;2023-06-22T17:25:10;66.03;;;59.57;;
14698;SDS011;7439;50.804;4.602;2023-06-22T17:27:39;68.17;;;61.37;;
14698;SDS011;7439;50.804;4.602;2023-06-22T17:30:13;68.67;;;61.80;;
14698;SDS011;7439;50.804;4.602;2023-06-22T17:32:46;71.67;;;64.40;;
14698;SDS011;7439;50.804;4.602;2023-06-22T17:44:38;65.10;;;58.47;;
14698;SDS011;7439;50.804;4.602;2023-06-22T17:50:10;62.63;;;55.93;;
14698;SDS011;7439;50.804;4.602;2023-06-22T17:55:43;59.90;;;53.70;;
14698;SDS011;7439;50.804;4.602;2023-06-22T17:58:25;61.63;;;54.97;;
14698;SDS011;7439;50.804;4.602;2023-06-22T18:00:58;59.30;;;52.90;;
14698;SDS011;7439;50.804;4.602;2023-06-22T18:03:57;59.13;;;53.03;;
14698;SDS011;7439;50.804;4.602;2023-06-22T18:06:32;56.27;;;50.40;;
14698;SDS011;7439;50.804;4.602;2023-06-22T18:43:10;52.13;;;46.93;;
14698;SDS011;7439;50.804;4.602;2023-06-22T18:49:07;53.33;;;47.77;;
14698;SDS011;7439;50.804;4.602;2023-06-22T19:00:34;51.73;;;46.13;;
14698;SDS011;7439;50.804;4.602;2023-06-22T19:03:24;50.50;;;45.50;;
14698;SDS011;7439;50.804;4.602;2023-06-22T19:05:56;49.93;;;44.93;;
14698;SDS011;7439;50.804;4.602;2023-06-22T19:08:25;51.83;;;46.37;;
14698;SDS011;7439;50.804;4.602;2023-06-22T19:10:52;52.33;;;47.07;;
14698;SDS011;7439;50.804;4.602;2023-06-22T19:13:20;50.87;;;45.93;;
14698;SDS011;7439;50.804;4.602;2023-06-22T19:16:05;50.40;;;44.93;;
14698;SDS011;7439;50.804;4.602;2023-06-22T19:18:36;51.17;;;45.90;;
14698;SDS011;7439;50.804;4.602;2023-06-22T19:21:28;50.23;;;45.03;;
14698;SDS011;7439;50.804;4.602;2023-06-22T19:23:55;49.10;;;44.20;;
14698;SDS011;7439;50.804;4.602;2023-06-22T19:26:23;48.67;;;43.73;;
14698;SDS011;7439;50.804;4.602;2023-06-22T19:28:53;49.47;;;44.47;;
14698;SDS011;7439;50.804;4.602;2023-06-22T19:31:24;46.63;;;42.17;;
14698;SDS011;7439;50.804;4.602;2023-06-22T19:33:54;49.27;;;44.37;;
14698;SDS011;7439;50.804;4.602;2023-06-22T19:36:30;47.97;;;43.23;;
14698;SDS011;7439;50.804;4.602;2023-06-22T19:39:00;47.83;;;43.07;;
14698;SDS011;7439;50.804;4.602;2023-06-22T19:41:44;48.20;;;43.43;;
14698;SDS011;7439;50.804;4.602;2023-06-22T19:44:12;49.47;;;44.50;;
14698;SDS011;7439;50.804;4.602;2023-06-22T19:46:41;46.70;;;41.97;;
14698;SDS011;7439;50.804;4.602;2023-06-22T19:49:10;49.60;;;44.50;;
14698;SDS011;7439;50.804;4.602;2023-06-22T19:51:38;46.70;;;42.10;;
14698;SDS011;7439;50.804;4.602;2023-06-22T19:54:06;47.33;;;42.77;;
14698;SDS011;7439;50.804;4.602;2023-06-22T19:56:36;49.70;;;44.80;;
14698;SDS011;7439;50.804;4.602;2023-06-22T19:59:10;46.43;;;41.77;;
14698;SDS011;7439;50.804;4.602;2023-06-22T20:01:41;43.50;;;38.97;;
14698;SDS011;7439;50.804;4.602;2023-06-22T20:04:09;45.90;;;41.17;;
14698;SDS011;7439;50.804;4.602;2023-06-22T20:06:37;42.37;;;38.00;;
14698;SDS011;7439;50.804;4.602;2023-06-22T20:09:05;42.57;;;38.27;;
14698;SDS011;7439;50.804;4.602;2023-06-22T20:11:43;41.77;;;37.73;;
14698;SDS011;7439;50.804;4.602;2023-06-22T20:14:12;42.10;;;37.73;;
14698;SDS011;7439;50.804;4.602;2023-06-22T20:19:37;48.97;;;44.03;;
14698;SDS011;7439;50.804;4.602;2023-06-22T20:22:18;48.77;;;43.77;;
14698;SDS011;7439;50.804;4.602;2023-06-22T20:24:52;46.93;;;41.90;;
14698;SDS011;7439;50.804;4.602;2023-06-22T20:27:23;46.03;;;41.30;;
14698;SDS011;7439;50.804;4.602;2023-06-22T20:29:53;51.23;;;45.83;;
14698;SDS011;7439;50.804;4.602;2023-06-22T20:32:46;55.30;;;49.47;;
14698;SDS011;7439;50.804;4.602;2023-06-22T20:43:46;74.70;;;65.20;;
14698;SDS011;7439;50.804;4.602;2023-06-22T20:46:32;73.90;;;64.30;;
14698;SDS011;7439;50.804;4.602;2023-06-22T20:49:15;88.57;;;72.33;;
14698;SDS011;7439;50.804;4.602;2023-06-22T20:52:03;75.33;;;61.87;;
14698;SDS011;7439;50.804;4.602;2023-06-22T20:54:53;79.57;;;66.10;;
14698;SDS011;7439;50.804;4.602;2023-06-22T21:01:07;130.90;;;100.83;;
14698;SDS011;7439;50.804;4.602;2023-06-22T21:03:43;138.40;;;105.23;;
14698;SDS011;7439;50.804;4.602;2023-06-22T21:06:13;134.33;;;104.80;;
14698;SDS011;7439;50.804;4.602;2023-06-22T21:08:57;139.90;;;106.70;;
14698;SDS011;7439;50.804;4.602;2023-06-22T21:11:50;129.67;;;102.57;;
14698;SDS011;7439;50.804;4.602;2023-06-22T21:14:18;140.73;;;104.90;;
14698;SDS011;7439;50.804;4.602;2023-06-22T21:16:53;130.80;;;102.97;;
14698;SDS011;7439;50.804;4.602;2023-06-22T21:19:44;125.80;;;100.10;;
14698;SDS011;7439;50.804;4.602;2023-06-22T21:22:12;116.40;;;97.20;;
14698;SDS011;7439;50.804;4.602;2023-06-22T21:24:39;116.00;;;95.57;;
14698;SDS011;7439;50.804;4.602;2023-06-22T21:27:06;110.40;;;88.87;;
14698;SDS011;7439;50.804;4.602;2023-06-22T21:29:38;113.27;;;91.80;;
14698;SDS011;7439;50.804;4.602;2023-06-22T21:35:45;105.37;;;85.50;;